createdAt,value
2022-08-22T00:02:26.232Z,99683.88
2022-08-22T00:02:59.383Z,99678.72
2022-08-22T00:03:15.643Z,99666.41
2022-08-22T00:05:26.219Z,99682.50
2022-08-22T00:08:23.290Z,99676.88
2022-08-22T00:11:19.212Z,99672.69
2022-08-22T00:14:15.556Z,99678.81
2022-08-22T00:17:13.305Z,99676.91
2022-08-22T00:20:10.014Z,99671.22
2022-08-22T00:23:04.067Z,99670.59
2022-08-22T00:25:59.126Z,99672.16
2022-08-22T00:28:53.492Z,99671.34
2022-08-22T00:31:44.704Z,99673.06
2022-08-22T00:34:39.958Z,99672.09
2022-08-22T00:37:35.768Z,99673.09
2022-08-22T00:40:36.925Z,99661.88
2022-08-22T00:43:52.329Z,99662.13
2022-08-22T00:47:11.557Z,99663.50
2022-08-22T00:50:26.652Z,99661.38
2022-08-22T00:53:46.932Z,99652.00
2022-08-22T00:57:04.290Z,99646.88
2022-08-22T01:00:07.700Z,99631.31
2022-08-22T01:03:38.335Z,99659.50
2022-08-22T01:06:39.571Z,99650.44
2022-08-22T01:09:44.344Z,99651.13
2022-08-22T01:12:46.774Z,99645.66
2022-08-22T01:15:38.470Z,99652.09
2022-08-22T01:18:54.805Z,99650.16
2022-08-22T01:22:00.864Z,99656.88
2022-08-22T01:25:26.408Z,99642.63
2022-08-22T01:28:45.670Z,99646.72
2022-08-22T01:32:05.895Z,99653.25
2022-08-22T01:35:26.460Z,99643.16
2022-08-22T01:38:42.341Z,99646.63
2022-08-22T01:42:08.600Z,99647.38
2022-08-22T01:45:14.318Z,99646.09
2022-08-22T01:48:10.239Z,99640.84
2022-08-22T01:51:12.877Z,99640.25
2022-08-22T01:54:09.327Z,99643.00
2022-08-22T01:57:03.053Z,99644.94
2022-08-22T01:59:55.734Z,99639.16
2022-08-22T02:02:58.785Z,99639.03
2022-08-22T02:05:53.339Z,99639.38
2022-08-22T02:08:47.924Z,99646.63
2022-08-22T02:11:42.271Z,99646.53
2022-08-22T02:14:41.304Z,99646.72
2022-08-22T02:17:32.588Z,99648.50
2022-08-22T02:20:25.550Z,99643.88
2022-08-22T02:23:23.098Z,99648.06
2022-08-22T02:26:16.917Z,99615.50
2022-08-22T02:29:12.911Z,99637.47
2022-08-22T02:32:07.659Z,99640.53
2022-08-22T02:35:03.420Z,99649.13
2022-08-22T02:38:05.454Z,99642.44
2022-08-22T02:41:05.428Z,99642.41
2022-08-22T02:43:57.812Z,99643.06
2022-08-22T02:46:53.617Z,99643.31
2022-08-22T02:49:52.684Z,99643.84
2022-08-22T02:52:53.438Z,99641.66
2022-08-22T02:55:50.915Z,99650.91
2022-08-22T02:58:47.289Z,99644.91
2022-08-22T03:01:40.882Z,99643.00
2022-08-22T03:04:52.905Z,99636.66
2022-08-22T03:07:48.395Z,99595.22
2022-08-22T03:10:49.070Z,99633.31
2022-08-22T03:13:53.491Z,99638.97
2022-08-22T03:16:49.007Z,99629.03
2022-08-22T03:19:56.552Z,99627.97
2022-08-22T03:22:52.106Z,99625.25
2022-08-22T03:25:49.741Z,99629.47
2022-08-22T03:28:54.412Z,99629.38
2022-08-22T03:32:12.998Z,99630.72
2022-08-22T03:35:06.282Z,99633.22
2022-08-22T03:38:08.868Z,99629.91
2022-08-22T03:41:16.411Z,99634.38
2022-08-22T03:44:19.522Z,99644.41
2022-08-22T03:47:39.082Z,99642.19
2022-08-22T03:51:12.328Z,99648.25
2022-08-22T03:54:34.194Z,99649.09
2022-08-22T03:57:52.052Z,99658.69
2022-08-22T04:01:09.619Z,99657.97
2022-08-22T04:04:26.833Z,99660.19
2022-08-22T04:07:59.381Z,99665.09
2022-08-22T04:11:07.643Z,99666.00
2022-08-22T04:14:09.931Z,99666.44
2022-08-22T04:17:31.447Z,99672.47
2022-08-22T04:20:38.072Z,99668.16
2022-08-22T04:24:01.932Z,99669.78
2022-08-22T04:26:56.178Z,99671.38
2022-08-22T04:29:49.850Z,99665.38
2022-08-22T04:32:44.905Z,99672.91
2022-08-22T04:35:36.599Z,99663.81
2022-08-22T04:38:31.964Z,99669.84
2022-08-22T04:41:30.386Z,99637.56
2022-08-22T04:44:25.958Z,99669.38
2022-08-22T04:47:29.571Z,99662.91
2022-08-22T04:50:23.456Z,99678.59
2022-08-22T04:53:24.561Z,99683.78
2022-08-22T04:56:21.205Z,99673.50
2022-08-22T04:59:13.655Z,99682.84
2022-08-22T05:02:06.450Z,99683.50
2022-08-22T05:05:01.613Z,99686.63
2022-08-22T05:07:55.249Z,99689.00
2022-08-22T05:10:47.964Z,99688.09
2022-08-22T05:13:43.969Z,99682.56
2022-08-22T05:16:37.915Z,99680.38
2022-08-22T05:19:32.280Z,99685.88
2022-08-22T05:22:28.981Z,99684.59
2022-08-22T05:25:22.808Z,99684.47
2022-08-22T05:28:16.168Z,99687.16
2022-08-22T05:31:07.964Z,99681.06
2022-08-22T05:34:02.689Z,99678.50
2022-08-22T05:36:56.837Z,99678.78
2022-08-22T05:39:48.911Z,99675.13
2022-08-22T05:42:38.026Z,99671.16
2022-08-22T05:45:28.516Z,99671.03
2022-08-22T05:48:19.356Z,99670.97
2022-08-22T05:51:16.370Z,99678.44
2022-08-22T05:54:13.124Z,99675.09
2022-08-22T05:57:10.261Z,99647.41
2022-08-22T06:00:48.167Z,99670.41
2022-08-22T06:03:41.144Z,99675.78
2022-08-22T06:06:34.452Z,99671.63
2022-08-22T06:09:34.672Z,99680.91
2022-08-22T06:12:30.838Z,99687.00
2022-08-22T06:15:23.052Z,99695.03
2022-08-22T06:18:15.036Z,99688.81
2022-08-22T06:21:05.682Z,99686.66
2022-08-22T06:23:58.619Z,99690.56
2022-08-22T06:26:51.058Z,99691.97
2022-08-22T06:29:43.297Z,99692.44
2022-08-22T06:32:58.426Z,99692.97
2022-08-22T06:36:05.263Z,99694.72
2022-08-22T06:39:07.622Z,99700.25
2022-08-22T06:42:01.036Z,99705.44
2022-08-22T06:44:52.135Z,99713.00
2022-08-22T06:47:43.616Z,99716.91
2022-08-22T06:50:42.262Z,99718.00
2022-08-22T06:53:35.891Z,99717.63
2022-08-22T06:56:29.512Z,99722.81
2022-08-22T06:59:23.452Z,99713.81
2022-08-22T07:02:23.860Z,99714.50
2022-08-22T07:05:18.313Z,99720.19
2022-08-22T07:08:08.586Z,99719.91
2022-08-22T07:10:59.684Z,99733.59
2022-08-22T07:13:54.588Z,99733.78
2022-08-22T07:16:45.224Z,99728.22
2022-08-22T07:19:35.891Z,99734.41
2022-08-22T07:22:26.220Z,99731.97
2022-08-22T07:25:16.781Z,99727.72
2022-08-22T07:28:16.074Z,99740.19
2022-08-22T07:31:16.095Z,99742.09
2022-08-22T07:34:23.045Z,99743.09
2022-08-22T07:37:18.096Z,99741.59
2022-08-22T07:40:13.995Z,99743.13
2022-08-22T07:43:10.266Z,99724.31
2022-08-22T07:46:02.458Z,99757.44
2022-08-22T07:49:08.526Z,99758.06
2022-08-22T07:52:02.639Z,99744.06
2022-08-22T07:54:57.791Z,99750.91
2022-08-22T07:57:49.567Z,99750.97
2022-08-22T08:00:44.585Z,99759.50
2022-08-22T08:03:32.826Z,99750.56
2022-08-22T08:06:24.712Z,99759.06
2022-08-22T08:09:15.518Z,99756.03
2022-08-22T08:12:06.750Z,99755.56
2022-08-22T08:14:56.623Z,99750.16
2022-08-22T08:17:46.715Z,99755.84
2022-08-22T08:20:37.032Z,99752.88
2022-08-22T08:23:30.064Z,99764.09
2022-08-22T08:26:22.188Z,99760.41
2022-08-22T08:29:09.653Z,99748.34
2022-08-22T08:31:58.606Z,99749.75
2022-08-22T08:34:46.830Z,99757.06
2022-08-22T08:37:43.360Z,99746.16
2022-08-22T08:41:01.247Z,99747.03
2022-08-22T08:43:58.649Z,99751.28
2022-08-22T08:47:22.118Z,99746.41
2022-08-22T08:50:22.126Z,99767.97
2022-08-22T08:53:31.743Z,99749.47
2022-08-22T08:56:29.865Z,99751.38
2022-08-22T08:59:35.545Z,99735.38
2022-08-22T09:02:50.898Z,99738.19
2022-08-22T09:05:55.567Z,99740.66
2022-08-22T09:08:57.051Z,99737.25
2022-08-22T09:12:21.488Z,99739.63
2022-08-22T09:15:25.917Z,99743.78
2022-08-22T09:19:04.863Z,99740.47
2022-08-22T09:22:20.726Z,99735.22
2022-08-22T09:25:24.060Z,99745.00
2022-08-22T09:28:18.451Z,99742.41
2022-08-22T09:31:48.239Z,99743.56
2022-08-22T09:34:56.528Z,99743.13
2022-08-22T09:38:01.604Z,99731.28
2022-08-22T09:41:00.687Z,99732.91
2022-08-22T09:44:07.284Z,99727.38
2022-08-22T09:47:07.223Z,99725.94
2022-08-22T09:50:08.331Z,99722.78
2022-08-22T09:53:10.630Z,99718.56
2022-08-22T09:56:11.623Z,99711.53
2022-08-22T09:59:10.363Z,99713.59
2022-08-22T10:02:06.005Z,99706.34
2022-08-22T10:05:01.666Z,99702.59
2022-08-22T10:08:11.410Z,99698.47
2022-08-22T10:11:17.334Z,99693.09
2022-08-22T10:14:22.373Z,99682.03
2022-08-22T10:17:21.889Z,99680.78
2022-08-22T10:20:20.785Z,99679.50
2022-08-22T10:23:21.093Z,99677.09
2022-08-22T10:26:22.619Z,99682.81
2022-08-22T10:29:40.922Z,99684.38
2022-08-22T10:32:37.083Z,99671.13
2022-08-22T10:35:34.053Z,99667.19
2022-08-22T10:38:26.628Z,99669.97
2022-08-22T10:41:26.441Z,99667.38
2022-08-22T10:44:20.514Z,99661.03
2022-08-22T10:47:14.554Z,99661.44
2022-08-22T10:50:10.813Z,99628.59
2022-08-22T10:53:16.624Z,99666.25
2022-08-22T10:56:11.718Z,99658.94
2022-08-22T10:59:10.149Z,99659.59
2022-08-22T11:02:21.948Z,99658.50
2022-08-22T11:05:32.415Z,99644.19
2022-08-22T11:08:38.409Z,99655.34
2022-08-22T11:11:48.816Z,99649.25
2022-08-22T11:15:03.077Z,99648.88
2022-08-22T11:18:20.307Z,99648.94
2022-08-22T11:21:12.039Z,99637.09
2022-08-22T11:24:25.030Z,99636.88
2022-08-22T11:27:39.749Z,99638.81
2022-08-22T11:30:44.094Z,99641.72
2022-08-22T11:33:47.221Z,99637.47
2022-08-22T11:36:40.322Z,99610.72
2022-08-22T11:39:35.748Z,99633.59
2022-08-22T11:42:34.079Z,99631.13
2022-08-22T11:45:28.852Z,99635.47
2022-08-22T11:48:27.682Z,99630.47
2022-08-22T11:51:38.018Z,99631.72
2022-08-22T11:54:35.007Z,99619.06
2022-08-22T11:57:31.833Z,99617.81
2022-08-22T12:00:32.043Z,99625.06
2022-08-22T12:03:34.676Z,99617.97
2022-08-22T12:06:46.823Z,99624.25
2022-08-22T12:09:44.039Z,99619.19
2022-08-22T12:12:55.279Z,99616.28
2022-08-22T12:15:53.748Z,99622.50
2022-08-22T12:18:55.278Z,99622.06
2022-08-22T12:22:34.704Z,99617.94
2022-08-22T12:25:44.548Z,99615.59
2022-08-22T12:28:40.990Z,99602.72
2022-08-22T12:31:40.333Z,99613.53
2022-08-22T12:34:36.986Z,99606.88
2022-08-22T12:37:33.112Z,99605.25
2022-08-22T12:40:47.586Z,99598.13
2022-08-22T12:43:53.461Z,99593.97
2022-08-22T12:46:54.527Z,99588.53
2022-08-22T12:49:58.602Z,99575.44
2022-08-22T12:53:07.500Z,99566.75
2022-08-22T12:56:05.150Z,99578.41
2022-08-22T12:59:17.895Z,99579.47
2022-08-22T13:02:14.756Z,99582.75
2022-08-22T13:05:13.611Z,99568.19
2022-08-22T13:08:13.196Z,99569.41
2022-08-22T13:11:10.057Z,99558.97
2022-08-22T13:14:05.368Z,99563.56
2022-08-22T13:16:58.280Z,99561.88
2022-08-22T13:19:55.609Z,99562.19
2022-08-22T13:22:45.386Z,99560.53
2022-08-22T13:26:03.025Z,99550.81
2022-08-22T13:29:24.120Z,99555.78
2022-08-22T13:32:12.427Z,99553.31
2022-08-22T13:35:02.186Z,99559.75
2022-08-22T13:37:55.575Z,99557.78
2022-08-22T13:40:51.444Z,99555.72
2022-08-22T13:43:58.374Z,99554.91
2022-08-22T13:47:13.112Z,99549.22
2022-08-22T13:50:08.007Z,99552.63
2022-08-22T13:53:04.650Z,99540.09
2022-08-22T13:56:03.737Z,99542.75
2022-08-22T13:58:57.143Z,99538.28
2022-08-22T14:01:49.989Z,99538.50
2022-08-22T14:04:42.079Z,99542.22
2022-08-22T14:07:34.750Z,99528.66
2022-08-22T14:10:28.005Z,99532.25
2022-08-22T14:13:36.940Z,99534.22
2022-08-22T14:16:29.328Z,99532.75
2022-08-22T14:19:27.559Z,99535.38
2022-08-22T14:22:21.974Z,99532.72
2022-08-22T14:25:22.677Z,99521.50
2022-08-22T14:28:27.427Z,99524.91
2022-08-22T14:31:22.938Z,99519.94
2022-08-22T14:34:15.814Z,99504.72
2022-08-22T14:37:12.913Z,99515.88
2022-08-22T14:40:07.195Z,99517.84
2022-08-22T14:42:59.446Z,99515.50
2022-08-22T14:46:02.081Z,99507.56
2022-08-22T14:49:25.295Z,99505.34
2022-08-22T14:52:29.398Z,99505.41
2022-08-22T14:55:21.422Z,99500.00
2022-08-22T14:58:17.202Z,99467.59
2022-08-22T15:01:12.322Z,99505.19
2022-08-22T15:04:06.826Z,99511.31
2022-08-22T15:06:58.677Z,99501.56
2022-08-22T15:09:53.096Z,99495.16
2022-08-22T15:12:48.191Z,99503.63
2022-08-22T15:15:41.233Z,99498.00
2022-08-22T15:18:51.601Z,99499.03
2022-08-22T15:21:41.482Z,99495.94
2022-08-22T15:24:29.959Z,99491.06
2022-08-22T15:27:20.057Z,99492.09
2022-08-22T15:30:16.910Z,99469.72
2022-08-22T15:33:13.757Z,99500.84
2022-08-22T15:36:15.930Z,99495.19
2022-08-22T15:39:29.018Z,99490.06
2022-08-22T15:42:26.855Z,99496.72
2022-08-22T15:45:30.034Z,99493.59
2022-08-22T15:48:30.945Z,99486.38
2022-08-22T15:51:35.426Z,99491.78
2022-08-22T15:54:29.261Z,99488.97
2022-08-22T15:57:23.286Z,99470.47
2022-08-22T16:00:28.217Z,99443.72
2022-08-22T16:03:29.468Z,99493.31
2022-08-22T16:06:45.313Z,99485.34
2022-08-22T16:09:40.787Z,99484.56
2022-08-22T16:12:36.478Z,99490.72
2022-08-22T16:15:56.870Z,99487.91
2022-08-22T16:19:16.229Z,99483.31
2022-08-22T16:22:46.966Z,99476.34
2022-08-22T16:26:08.172Z,99478.13
2022-08-22T16:29:01.618Z,99476.56
2022-08-22T16:32:01.235Z,99479.41
2022-08-22T16:34:50.223Z,99477.59
2022-08-22T16:37:50.152Z,99477.25
2022-08-22T16:40:48.918Z,99479.00
2022-08-22T16:43:37.215Z,99480.44
2022-08-22T16:46:46.130Z,99467.84
2022-08-22T16:49:37.657Z,99472.44
2022-08-22T16:52:55.400Z,99476.19
2022-08-22T16:55:50.802Z,99481.25
2022-08-22T16:58:59.042Z,99474.03
2022-08-22T17:02:08.832Z,99482.69
2022-08-22T17:05:12.163Z,99479.31
2022-08-22T17:08:13.819Z,99483.44
2022-08-22T17:11:14.191Z,99481.31
2022-08-22T17:14:18.473Z,99490.03
2022-08-22T17:17:22.740Z,99483.31
2022-08-22T17:20:23.851Z,99478.97
2022-08-22T17:23:25.022Z,99488.72
2022-08-22T17:26:21.042Z,99488.19
2022-08-22T17:29:16.269Z,99495.59
2022-08-22T17:32:11.867Z,99494.47
2022-08-22T17:35:13.397Z,99490.38
2022-08-22T17:38:14.280Z,99493.69
2022-08-22T17:41:19.834Z,99494.41
2022-08-22T17:44:17.969Z,99492.28
2022-08-22T17:47:14.811Z,99490.63
2022-08-22T17:50:12.641Z,99502.56
2022-08-22T17:53:03.967Z,99500.91
2022-08-22T17:56:01.436Z,99501.72
2022-08-22T17:58:59.461Z,99502.88
2022-08-22T18:01:51.463Z,99505.56
2022-08-22T18:04:47.257Z,99504.63
2022-08-22T18:07:57.467Z,99499.28
2022-08-22T18:10:51.025Z,99500.28
2022-08-22T18:13:50.411Z,99510.81
2022-08-22T18:16:47.246Z,99507.16
2022-08-22T18:19:43.030Z,99513.97
2022-08-22T18:22:37.127Z,99511.03
2022-08-22T18:25:39.910Z,99513.44
2022-08-22T18:28:35.965Z,99503.31
2022-08-22T18:31:38.711Z,99516.56
2022-08-22T18:34:34.282Z,99513.25
2022-08-22T18:37:49.236Z,99521.44
2022-08-22T18:40:49.902Z,99520.25
2022-08-22T18:43:41.051Z,99516.53
2022-08-22T18:46:47.772Z,99527.63
2022-08-22T18:50:02.517Z,99530.63
2022-08-22T18:52:51.227Z,99530.19
2022-08-22T18:55:57.028Z,99522.31
2022-08-22T18:59:05.356Z,99536.00
2022-08-22T19:02:10.630Z,99531.22
2022-08-22T19:05:34.076Z,99532.63
2022-08-22T19:08:53.871Z,99535.34
2022-08-22T19:11:51.034Z,99532.22
2022-08-22T19:14:59.620Z,99487.78
2022-08-22T19:18:09.492Z,99536.78
2022-08-22T19:21:34.861Z,99535.22
2022-08-22T19:25:09.642Z,99543.63
2022-08-22T19:28:25.196Z,99547.38
2022-08-22T19:31:23.244Z,99547.22
2022-08-22T19:34:18.751Z,99545.22
2022-08-22T19:37:31.104Z,99519.53
2022-08-22T19:40:54.476Z,99543.94
2022-08-22T19:43:44.149Z,99552.81
2022-08-22T19:46:37.499Z,99543.66
2022-08-22T19:49:30.106Z,99557.63
2022-08-22T19:52:29.772Z,99551.75
2022-08-22T19:55:23.425Z,99555.81
2022-08-22T19:58:31.755Z,99546.28
2022-08-22T20:01:37.278Z,99552.03
2022-08-22T20:05:01.732Z,99548.31
2022-08-22T20:08:03.119Z,99555.16
2022-08-22T20:11:02.320Z,99562.78
2022-08-22T20:13:52.172Z,99560.44
2022-08-22T20:17:01.476Z,99553.28
2022-08-22T20:23:07.941Z,99559.03
2022-08-22T20:25:57.050Z,99552.19
2022-08-22T20:28:49.670Z,99556.25
2022-08-22T20:31:39.393Z,99561.88
2022-08-22T20:34:31.066Z,99560.75
2022-08-22T20:37:40.187Z,99557.19
2022-08-22T20:40:56.307Z,99557.50
2022-08-22T20:43:47.975Z,99556.41
2022-08-22T20:46:53.649Z,99566.69
2022-08-22T20:49:46.119Z,99559.34
2022-08-22T20:52:37.012Z,99559.53
2022-08-22T20:55:31.677Z,99564.19
2022-08-22T20:58:22.702Z,99562.03
2022-08-22T21:01:13.630Z,99560.94
2022-08-22T21:04:05.137Z,99563.25
2022-08-22T21:07:00.726Z,99567.00
2022-08-22T21:10:13.339Z,99559.22
2022-08-22T21:13:08.274Z,99572.28
2022-08-22T21:15:58.559Z,99567.63
2022-08-22T21:18:49.923Z,99566.19
2022-08-22T21:21:39.479Z,99569.13
2022-08-22T21:24:27.800Z,99570.34
2022-08-22T21:27:25.576Z,99580.00
2022-08-22T21:30:23.305Z,99566.28
2022-08-22T21:33:23.669Z,99578.06
2022-08-22T21:36:15.605Z,99550.19
2022-08-22T21:39:13.596Z,99571.50
2022-08-22T21:42:12.832Z,99572.59
2022-08-22T21:45:03.752Z,99570.34
2022-08-22T21:47:51.879Z,99576.91
2022-08-22T21:50:41.398Z,99575.25
2022-08-22T21:53:31.037Z,99567.44
2022-08-22T21:56:30.543Z,99572.91
2022-08-22T21:59:25.479Z,99572.44
2022-08-22T22:02:34.191Z,99569.31
2022-08-22T22:05:25.897Z,99575.59
2022-08-22T22:08:14.355Z,99570.78
2022-08-22T22:11:05.993Z,99583.09
2022-08-22T22:14:01.242Z,99574.97
2022-08-22T22:16:49.272Z,99588.84
2022-08-22T22:19:37.678Z,99594.44
2022-08-22T22:22:25.900Z,99594.28
2022-08-22T22:25:40.890Z,99612.22
2022-08-22T22:28:25.029Z,99599.31
2022-08-22T22:31:15.670Z,99572.72
2022-08-22T22:34:03.715Z,99591.88
2022-08-22T22:36:51.898Z,99595.91
2022-08-22T22:39:40.229Z,99594.19
2022-08-22T22:42:29.897Z,99599.44
2022-08-22T22:45:18.382Z,99610.69
2022-08-22T22:48:08.059Z,99604.13
2022-08-22T22:50:56.316Z,99597.94
2022-08-22T22:53:44.797Z,99617.09
2022-08-22T22:56:32.788Z,99631.59
2022-08-22T22:59:24.608Z,99624.91
2022-08-22T23:02:14.906Z,99627.69
2022-08-22T23:05:04.724Z,99636.28
2022-08-22T23:07:52.671Z,99639.66
2022-08-22T23:10:40.918Z,99637.06
2022-08-22T23:13:28.844Z,99647.63
2022-08-22T23:16:19.618Z,99645.09
2022-08-22T23:19:10.203Z,99643.38
2022-08-22T23:22:01.607Z,99647.13
2022-08-22T23:24:51.331Z,99658.53
2022-08-22T23:27:39.684Z,99643.72
2022-08-22T23:30:27.826Z,99657.28
2022-08-22T23:33:15.780Z,99578.03
2022-08-22T23:36:10.801Z,99652.59
2022-08-22T23:39:01.214Z,99661.31
2022-08-22T23:41:49.631Z,99648.09
2022-08-22T23:44:40.052Z,99645.47
2022-08-22T23:47:28.040Z,99653.41
2022-08-22T23:50:16.036Z,99650.59
2022-08-22T23:53:04.340Z,99642.50
2022-08-22T23:55:53.704Z,99643.28
2022-08-22T23:58:42.035Z,99642.66
